METAR Rapporter från flygplatser

 

ESTA - Ängelholm, Sweden
Distance from station: SSV 17km
Uppdaterad: 2021-04-16 16:20
Klart
Klart
 Vind från NV
Vind: NV 31 km/h
Temperatur: 10°C
Wind Chill: 7°C
Daggpunkt: -1°C
Luftfuktighet: 47%
Barometer: 1026 hPa
Summering: Klart
Visibility: greater than 10 km
2021/04/16 14:20 ESTA 161420Z 32017KT CAVOK 10/M01 Q1026
ESMT - Halmstad, Sweden
Distance from station: N 26km
Uppdaterad: 2021-04-16 16:20
Klart
Klart
 Vind från ONO
Vind: ONO 19 km/h
Temperatur: 14°C
Daggpunkt: -5°C
Luftfuktighet: 27%
Barometer: 1026 hPa
Summering: Klart
Visibility: greater than 10 km
2021/04/16 14:20 ESMT 161420Z 07010KT 040V120 CAVOK 14/M05 Q1026
 
ESTL - Ljungbyhed, Sweden
Distance from station: SSO 45km
Uppdaterad: 2021-04-16 16:20
Övervägande molnigt
Övervägande molnigt
 Vind från ONO
Vind: ONO 15 km/h
Temperatur: 12°C
Daggpunkt: -4°C
Luftfuktighet: 33%
Barometer: 1025 hPa
Clouds: Övervägande molnigt
Visibility: 10 km
Cloud details: Enstaka moln 1372 m
Övervägande molnigt 2256 m
2021/04/16 14:20 ESTL 161420Z AUTO 06008KT 9999 FEW045/// BKN074/// 12/M04 Q1025
EKCH - Copenhagen/Kastrup, Denmark
Distance from station: S 92km
Uppdaterad: 2021-04-16 16:20
Enstaka moln
Enstaka moln
 Vind från N
Vind: N 20 km/h
Temperatur: 11°C
Daggpunkt: -1°C
Luftfuktighet: 44%
Barometer: 1026 hPa
Clouds: Enstaka moln
Visibility: 10 km
Cloud details: Enstaka moln 3048 m
2021/04/16 14:20 EKCH 161420Z AUTO 35011KT 9999 FEW100/// 11/M01 Q1026 NOSIG
 
ESMK - Kristianstad/Everöd, Sweden
Distance from station: SO 93km
Uppdaterad: 2021-04-16 16:20
Klart
Klart
 Vind från NO
Vind: NO 13 km/h
Temperatur: 10°C
Wind Chill: 8°C
Daggpunkt: -3°C
Luftfuktighet: 40%
Barometer: 1025 hPa
Summering: Klart
Visibility: greater than 10 km
2021/04/16 14:20 ESMK 161420Z 05007KT CAVOK 10/M03 Q1025
ESMS - Malmö/Sturup, Sweden
Distance from station: SSO 104km
Uppdaterad: 2021-04-16 16:20
Klart
Klart
 Vind från NNO
Vind: NNO 17 km/h
Temperatur: 12°C
Daggpunkt: -4°C
Luftfuktighet: 33%
Barometer: 1025 hPa
Summering: Klart
Visibility: greater than 10 km
2021/04/16 14:20 ESMS 161420Z 03009KT 350V070 CAVOK 12/M04 Q1025
 
EKRK - Copenhagen/Roskilde, Denmark
Distance from station: SSV 108km
Uppdaterad: 2021-04-16 16:20
Enstaka moln
Enstaka moln
 Vind från NNV
Vind: NNV 26 km/h
Temperatur: 9°C
Wind Chill: 6°C
Daggpunkt: -1°C
Luftfuktighet: 50%
Barometer: 1026 hPa
Clouds: Enstaka moln
Visibility: 10 km
Cloud details: Enstaka moln 4877 m
2021/04/16 14:20 EKRK 161420Z AUTO 33014KT 9999 FEW160/// 09/M01 Q1026
ESMX - Växjö/Kronoberg, Sweden
Distance from station: ONO 124km
Uppdaterad: 2021-04-16 16:20
Helmulet
Helmulet
 Vind från NNO
Vind: NNO 20 km/h
Temperatur: 10°C
Wind Chill: 7°C
Daggpunkt: -6°C
Luftfuktighet: 32%
Barometer: 1026 hPa
Clouds: Helmulet
Visibility: 10 km
Cloud details: Helmulet 2256 m
2021/04/16 14:20 ESMX 161420Z AUTO 03011KT 9999 OVC074/// 10/M06 Q1026
 
EKAH - Tirstrup, Denmark
Distance from station: V 141km
Uppdaterad: 2021-04-16 16:20
Klart
Klart
 Vind från N
Vind: N 17 km/h
Temperatur: 10°C
Wind Chill: 8°C
Daggpunkt: -2°C
Luftfuktighet: 43%
Barometer: 1029 hPa
Clouds: Klart
Visibility: 10 km
2021/04/16 14:20 EKAH 161420Z AUTO 36009KT 320V040 9999 NCD 10/M02 Q1029
ESGG - Göteborg/Landvetter, Sweden
Distance from station: NNV 142km
Uppdaterad: 2021-04-16 16:20
Klart
Klart
 Vind från NNO
Vind: NNO 26 km/h
Temperatur: 10°C
Wind Chill: 7°C
Daggpunkt: -3°C
Luftfuktighet: 40%
Barometer: 1027 hPa
Summering: Klart
Visibility: greater than 10 km
2021/04/16 14:20 ESGG 161420Z 02014KT CAVOK 10/M03 Q1027 R03/09//95
 
ESDF - Ronneby, Sweden
Distance from station: O 147km
Uppdaterad: 2021-04-16 16:20
Klart
Klart
 Vind från NNO
Vind: NNO 28 km/h
Temperatur: 9°C
Wind Chill: 6°C
Daggpunkt: -3°C
Luftfuktighet: 43%
Barometer: 1025 hPa
Summering: Klart
Visibility: greater than 10 km
2021/04/16 14:20 ESDF 161420Z 03015KT CAVOK 09/M03 Q1025
ESGP - Göteborg/Säve, Sweden
Distance from station: NNV 161km
Uppdaterad: 2017-01-02 11:20
NOT Current
Klart
Klart
 Vind från calm
Vind: Vindstilla
Temperatur: -2°C
Daggpunkt: -4°C
Luftfuktighet: 86%
Barometer: 1012 hPa
Clouds: Klart
Visibility: 10 km
2017/01/02 10:20 ESGP 021020Z AUTO 00000KT 9999 NCD M02/M04 Q1012
 
ESGJ - Jönköping Airport, Sweden
Distance from station: NNO 164km
Uppdaterad: 2021-04-16 16:20
Delvis molnigt
Delvis molnigt
 Vind från NNO
Vind: NNO 22 km/h
Temperatur: 10°C
Wind Chill: 7°C
Daggpunkt: -2°C
Luftfuktighet: 43%
Barometer: 1027 hPa
Clouds: Delvis molnigt
Visibility: 10 km
Cloud details: Delvis molnigt 3048 m
2021/04/16 14:20 ESGJ 161420Z AUTO 02012KT 9999 SCT100/// 10/M02 Q1027
EKAV - Avno, Denmark
Distance from station: SSV 168km
Uppdaterad: 2016-10-04 06:20
NOT Current
Klart
Klart
 
Barometer: 1039 hPa
Clouds: Klart
Visibility: 10 km
2016/10/04 04:20 EKAV 040420Z AUTO ///// 9999NDV NCD ///// Q1039
 
EKRN - Rönne, Denmark
Distance from station: SO 191km
Uppdaterad: 2021-04-16 16:20
Helmulet
Helmulet
 Vind från N
Vind: N 11 km/h
Temperatur: 8°C
Wind Chill: 6°C
Daggpunkt: -1°C
Luftfuktighet: 53%
Barometer: 1024 hPa
Clouds: Helmulet
Visibility: 10 km
Cloud details: Helmulet 1250 m
2021/04/16 14:20 EKRN 161420Z AUTO 01006KT 320V060 9999 OVC041/// 08/M01 Q1024
EKOD - Odense/Beldringe, Denmark
Distance from station: VSV 193km
Uppdaterad: 2021-04-16 15:50
Enstaka moln
Enstaka moln
 Vind från N
Vind: N 20 km/h
Temperatur: 10°C
Wind Chill: 7°C
Daggpunkt: -3°C
Luftfuktighet: 40%
Barometer: 1028 hPa
Clouds: Enstaka moln
Visibility: 10 km
Cloud details: Enstaka moln 1372 m
2021/04/16 13:50 EKOD 161350Z 01011KT 340V050 9999 FEW045 10/M03 Q1028
 
EKYT - AAlborg, Denmark
Distance from station: VNV 199km
Uppdaterad: 2021-04-16 16:20
Klart
Klart
 Vind från NO
Vind: NO 17 km/h
Temperatur: 11°C
Daggpunkt: -3°C
Luftfuktighet: 38%
Barometer: 1029 hPa
Clouds: Klart
Visibility: 10 km
2021/04/16 14:20 EKYT 161420Z AUTO 04009KT 010V070 9999 NCD 11/M03 Q1029
EKSN - Sindal Airport, Denmark
Distance from station: NV 201km
Uppdaterad: 2021-04-16 14:50
NOT Current
Enstaka moln
Enstaka moln
 Vind från NNO
Vind: NNO 24 km/h
Temperatur: 10°C
Wind Chill: 7°C
Daggpunkt: 1°C
Luftfuktighet: 54%
Barometer: 1030 hPa
Clouds: Enstaka moln
Visibility: 10 km
Cloud details: Enstaka moln 1280 m
2021/04/16 12:50 EKSN 161250Z 02013KT 9999 FEW042 10/01 Q1030
 
ESMQ - Kalmar, Sweden
Distance from station: O 211km
Uppdaterad: 2021-04-16 16:20
Klart
Klart
 Vind från N
Vind: N 28 km/h
Temperatur: 8°C
Wind Chill: 4°C
Daggpunkt: -4°C
Luftfuktighet: 43%
Barometer: 1025 hPa
Summering: Klart
Visibility: greater than 10 km
2021/04/16 14:20 ESMQ 161420Z 01015KT CAVOK 08/M04 Q1025
ESGT - Trollhättan, Sweden
Distance from station: N 212km
Uppdaterad: 2021-04-16 16:20
Delvis molnigt
Delvis molnigt
 Vind från NO
Vind: NO 22 km/h
Temperatur: 10°C
Wind Chill: 7°C
Daggpunkt: -2°C
Luftfuktighet: 43%
Barometer: 1029 hPa
Clouds: Delvis molnigt
Visibility: 10 km
Cloud details: Delvis molnigt 3353 m
2021/04/16 14:20 ESGT 161420Z AUTO 04012KT 010V070 9999 SCT110/// 10/M02 Q1029